map of SKS home
SKS - Airport
Location
City:  Vojens, Denmark
Name:Skrydstrup AB
ICAO:EKSP
IATA:SKS

Details
Type:Airport (Aerodrome, Airfield)
Use:Military
Latitude:5513'32"N (55.225553)
Longitude:915'50"E (9.263931)
Elevation:141 ft (43 m)
Variation:2.72E (WMM2015 magnetic declination)
0.15 annual change
Runways:2
Longest:9862 × 148 ft (3006 × 45 m), paved

Time
Time Zone:UTC+1 (DST+2)
Local Time:

Weather
METAR:EKSP 210920Z 26007KT 9999 FEW017 FEW025CB 02/01 Q1017 R28R/250595 NOSIG
TAF:EKSP 210810Z 2109/2206 27010KT 9999 SCT020 BKN040
BECMG 2203/2205 0200 FG FZFG OVC001

Related Locations
Nearby:
Farthest:CHT: 11602 mi / 18671 km
Waitangi [Tuuta], CIT, NZ

Find:

   beyond  
but within

Other Information
Maps:
NOTAMs:
Links:
Sources:

  
  • flag of Denmark
  

Airport Diagram

Airport diagram for SKS

Larger airport diagram (OBSOLETE) from NGA

Sectional Chart

Flight Planning
at skyvector.com

Satellite Image

Google Maps Satellite view

 

Copyright © 2004-2019 Karl L. Swartz. All rights reserved.
The Great Circle Mapper name and logo are trademarks of the Great Circle Mapper.
All other trademarks mentioned herein belong to their respective owners.
Please see credits for attibutions and further copyright information.

  Follow gcmap on Facebook Follow gcmap on Twitter Follow gcmap on Google+ GCmap on LinkedIn

hCard Microformat

Geo Microformat